Time;durP1;ratioP1;P1;durP2;ratioP2;P2;SDS_P1;SDS_P2;PMS_P1;PMS_P2;Temp;Humidity;BMP_temperature;BMP_pressure;BME280_temperature;BME280_humidity;BME280_pressure;Samples;Min_cycle;Max_cycle;Signal;HPM_P1;HPM_P2
2022/06/29 00:01:47;;;;;;;1.38;0.73;;;20.30;52.20;;;;;;5044855;28;20032;-69
2022/06/29 00:04:12;;;;;;;1.17;0.90;;;20.30;52.10;;;;;;5039922;28;20029;-69
2022/06/29 00:06:38;;;;;;;2.05;0.80;;;20.30;52.30;;;;;;5044969;28;20044;-69
2022/06/29 00:09:04;;;;;;;1.70;0.90;;;20.20;52.30;;;;;;5047238;28;20426;-71
2022/06/29 00:11:30;;;;;;;1.38;0.90;;;20.30;52.50;;;;;;5044473;28;20036;-70
2022/06/29 00:13:55;;;;;;;2.67;1.00;;;20.20;52.50;;;;;;5044161;28;20028;-71
2022/06/29 00:16:21;;;;;;;1.17;0.90;;;20.20;52.70;;;;;;5042454;28;20648;-71
2022/06/29 00:18:46;;;;;;;1.30;0.88;;;20.20;52.70;;;;;;5038025;28;20044;-71
2022/06/29 00:21:12;;;;;;;3.00;1.00;;;20.20;52.90;;;;;;5040238;28;20174;-70
2022/06/29 00:23:37;;;;;;;1.60;1.02;;;20.10;53.10;;;;;;5044409;28;20041;-70
2022/06/29 00:26:03;;;;;;;2.00;0.80;;;20.00;53.10;;;;;;5035794;28;20039;-69
2022/06/29 00:28:29;;;;;;;2.58;1.10;;;20.00;53.20;;;;;;5036997;28;20078;-70
2022/06/29 00:30:55;;;;;;;2.58;0.90;;;20.00;53.30;;;;;;5046102;28;20021;-69
2022/06/29 00:33:20;;;;;;;2.92;1.00;;;20.00;53.40;;;;;;5039383;28;20365;-71
2022/06/29 00:35:46;;;;;;;1.23;1.00;;;20.00;53.60;;;;;;5036616;28;20049;-69
2022/06/29 00:38:12;;;;;;;2.85;1.00;;;19.90;53.70;;;;;;5036325;28;20100;-69
2022/06/29 00:40:37;;;;;;;2.42;1.10;;;19.90;53.80;;;;;;5042509;28;20029;-69
2022/06/29 00:43:03;;;;;;;1.30;0.90;;;19.90;54.10;;;;;;5040863;28;20578;-70
2022/06/29 00:45:29;;;;;;;1.27;1.00;;;19.90;54.00;;;;;;5042227;28;20087;-70
2022/06/29 00:47:54;;;;;;;2.38;1.10;;;19.80;54.20;;;;;;5045070;28;20106;-70
2022/06/29 00:50:20;;;;;;;2.28;1.33;;;19.80;54.40;;;;;;5044767;28;20079;-70
2022/06/29 00:52:46;;;;;;;2.15;1.45;;;19.80;54.40;;;;;;5039903;28;21162;-70
2022/06/29 00:55:18;;;;;;;1.70;1.00;;;19.80;54.40;;;;;;5040720;28;20372;-70
2022/06/29 00:57:44;;;;;;;2.03;1.10;;;19.90;54.40;;;;;;5029832;28;20026;-70
2022/06/29 01:00:11;;;;;;;3.65;1.33;;;19.80;54.40;;;;;;5036933;28;20112;-70
2022/06/29 01:02:37;;;;;;;1.98;1.27;;;19.80;54.60;;;;;;5038062;28;20105;-69
2022/06/29 01:05:04;;;;;;;1.75;1.20;;;19.70;54.80;;;;;;5045394;28;20475;-69
2022/06/29 01:07:33;;;;;;;2.22;1.10;;;19.70;55.00;;;;;;5038765;28;20083;-69
2022/06/29 01:10:00;;;;;;;3.63;1.30;;;19.60;55.10;;;;;;5037155;28;20553;-69
2022/06/29 01:12:26;;;;;;;2.42;1.20;;;19.60;55.30;;;;;;5041909;28;20080;-69
2022/06/29 01:14:53;;;;;;;2.38;1.20;;;19.50;55.20;;;;;;5041509;28;20133;-70
2022/06/29 01:17:20;;;;;;;2.00;1.27;;;19.60;55.20;;;;;;5043582;28;20032;-70
2022/06/29 01:19:46;;;;;;;1.13;1.00;;;19.60;55.20;;;;;;5040782;28;20088;-71
2022/06/29 01:22:19;;;;;;;1.95;1.10;;;19.60;55.20;;;;;;5038058;28;20446;-69
2022/06/29 01:24:47;;;;;;;3.25;1.70;;;19.60;55.10;;;;;;5036787;28;20534;-69
2022/06/29 01:27:14;;;;;;;3.30;1.50;;;19.50;55.10;;;;;;5040967;28;20021;-70
2022/06/29 01:29:40;;;;;;;2.72;1.70;;;19.50;55.40;;;;;;5039973;28;20030;-69
2022/06/29 01:32:07;;;;;;;1.38;1.27;;;19.50;55.50;;;;;;5050147;28;20032;-69
2022/06/29 01:34:33;;;;;;;2.42;1.50;;;19.40;55.60;;;;;;5049828;28;20051;-71
2022/06/29 01:36:59;;;;;;;2.13;1.33;;;19.40;55.70;;;;;;5041802;28;20021;-70
2022/06/29 01:39:26;;;;;;;3.22;1.40;;;19.30;55.80;;;;;;5043567;28;20025;-70
2022/06/29 01:41:52;;;;;;;2.63;1.50;;;19.30;56.00;;;;;;5038776;28;20033;-69
2022/06/29 01:44:18;;;;;;;1.90;1.33;;;19.30;56.10;;;;;;5047342;28;20029;-70
2022/06/29 01:46:43;;;;;;;3.13;1.50;;;19.20;56.20;;;;;;5044537;28;20029;-70
2022/06/29 01:49:09;;;;;;;3.42;1.50;;;19.20;56.20;;;;;;5042518;28;20036;-71
2022/06/29 01:51:35;;;;;;;3.58;1.75;;;19.20;56.40;;;;;;5043393;28;20052;-72
2022/06/29 01:54:01;;;;;;;2.55;1.50;;;19.10;56.60;;;;;;5050500;28;20028;-72
2022/06/29 01:56:26;;;;;;;3.15;1.50;;;19.10;56.70;;;;;;5044222;28;20494;-70
2022/06/29 01:58:52;;;;;;;2.53;1.02;;;19.10;56.80;;;;;;5039584;28;20029;-71
2022/06/29 02:01:17;;;;;;;3.15;1.55;;;19.10;56.60;;;;;;5043824;28;20475;-71
2022/06/29 02:03:44;;;;;;;2.88;1.40;;;19.10;56.70;;;;;;5047410;28;20032;-71
2022/06/29 02:06:10;;;;;;;1.92;1.70;;;19.00;56.90;;;;;;5045612;28;20112;-69
2022/06/29 02:08:35;;;;;;;5.13;2.05;;;19.00;57.20;;;;;;5033673;28;20468;-70
2022/06/29 02:11:01;;;;;;;2.80;1.85;;;18.90;57.40;;;;;;5041182;28;20089;-68
2022/06/29 02:13:27;;;;;;;2.75;1.60;;;18.90;57.40;;;;;;5040148;28;20037;-69
2022/06/29 02:15:53;;;;;;;2.15;1.50;;;18.90;57.40;;;;;;5045440;28;20021;-70
2022/06/29 02:18:18;;;;;;;3.80;1.42;;;18.90;57.50;;;;;;5042841;28;20100;-70
2022/06/29 02:20:44;;;;;;;2.80;1.60;;;18.80;57.60;;;;;;5039506;28;20603;-69
2022/06/29 02:23:10;;;;;;;1.95;1.30;;;18.80;57.70;;;;;;5040947;28;20029;-69
2022/06/29 02:25:35;;;;;;;1.90;1.58;;;18.80;57.90;;;;;;5038832;28;20030;-69
2022/06/29 02:28:01;;;;;;;2.13;1.50;;;18.80;57.90;;;;;;5041951;28;20542;-69
2022/06/29 02:36:06;;;;;;;1.92;1.42;;;18.60;58.60;;;;;;5037077;28;20076;-70
2022/06/29 02:38:31;;;;;;;2.67;1.88;;;18.60;58.80;;;;;;5036206;28;20108;-69
2022/06/29 02:40:57;;;;;;;3.72;1.80;;;18.50;59.10;;;;;;5040780;28;20036;-68
2022/06/29 02:43:22;;;;;;;1.98;1.67;;;18.50;59.00;;;;;;5046129;28;20033;-68
2022/06/29 02:45:48;;;;;;;2.30;1.60;;;18.50;59.00;;;;;;5042137;28;20029;-69
2022/06/29 02:48:13;;;;;;;3.15;1.50;;;18.50;59.20;;;;;;5047260;28;20025;-68
2022/06/29 02:50:39;;;;;;;2.55;1.80;;;18.50;59.30;;;;;;5038942;28;20033;-69
2022/06/29 02:53:04;;;;;;;2.97;1.58;;;18.40;59.30;;;;;;5041544;28;20021;-69
2022/06/29 02:55:30;;;;;;;2.50;1.70;;;18.40;59.40;;;;;;5039180;28;20544;-69
2022/06/29 02:57:55;;;;;;;2.72;1.60;;;18.40;59.40;;;;;;5037537;28;20013;-69
2022/06/29 03:00:21;;;;;;;3.13;1.98;;;18.40;59.50;;;;;;5038523;28;20468;-69
2022/06/29 03:02:46;;;;;;;2.92;1.40;;;18.40;59.60;;;;;;5037893;28;20036;-70
2022/06/29 03:05:12;;;;;;;1.92;1.63;;;18.40;59.70;;;;;;5031447;28;20048;-69
2022/06/29 03:07:37;;;;;;;1.55;1.40;;;18.40;59.70;;;;;;5046646;28;20091;-68
2022/06/29 03:10:03;;;;;;;2.35;1.80;;;18.30;59.70;;;;;;5040779;28;20028;-69
2022/06/29 03:12:29;;;;;;;4.32;1.98;;;18.30;60.00;;;;;;5045970;28;20071;-70
2022/06/29 03:14:55;;;;;;;3.78;2.47;;;18.30;60.00;;;;;;5049746;28;20021;-70
2022/06/29 03:17:20;;;;;;;5.10;3.03;;;18.30;60.00;;;;;;5042706;28;20021;-69
2022/06/29 03:19:46;;;;;;;4.13;2.30;;;18.30;60.00;;;;;;5039773;28;20025;-70
2022/06/29 03:22:11;;;;;;;2.90;2.03;;;18.20;60.00;;;;;;5041135;28;20040;-69
2022/06/29 03:24:38;;;;;;;3.22;1.80;;;18.30;60.10;;;;;;5049247;28;20089;-69
2022/06/29 03:27:04;;;;;;;3.80;2.03;;;18.30;60.00;;;;;;5036795;28;20431;-69
2022/06/29 03:29:30;;;;;;;3.40;1.60;;;18.20;60.20;;;;;;5035525;28;20026;-69
2022/06/29 03:31:55;;;;;;;2.42;1.60;;;18.20;60.90;;;;;;5033330;28;20025;-69
2022/06/29 03:34:21;;;;;;;3.40;1.77;;;18.20;60.20;;;;;;5040729;28;20021;-69
2022/06/29 03:36:46;;;;;;;2.40;2.00;;;18.20;60.20;;;;;;5032020;28;20031;-70
2022/06/29 03:39:12;;;;;;;2.35;1.40;;;18.30;60.20;;;;;;5037665;28;20031;-70
2022/06/29 03:41:38;;;;;;;2.22;1.67;;;18.20;60.10;;;;;;5036322;28;20044;-70
2022/06/29 03:44:04;;;;;;;3.30;1.80;;;18.20;60.10;;;;;;5045098;28;20040;-70
2022/06/29 03:46:29;;;;;;;2.45;1.60;;;18.20;60.30;;;;;;5043097;28;20037;-70
2022/06/29 03:48:55;;;;;;;2.47;1.83;;;18.20;60.10;;;;;;5042396;28;20132;-70
2022/06/29 03:51:20;;;;;;;2.53;1.50;;;18.20;60.10;;;;;;5043691;28;20075;-70
2022/06/29 03:53:46;;;;;;;2.97;2.25;;;18.20;60.20;;;;;;5039582;28;20112;-67
2022/06/29 03:56:12;;;;;;;2.83;2.20;;;18.10;60.60;;;;;;5039865;28;20021;-67
2022/06/29 03:58:38;;;;;;;3.55;1.85;;;18.10;60.80;;;;;;5033189;28;20026;-67
2022/06/29 04:01:04;;;;;;;2.42;2.00;;;18.10;60.80;;;;;;5042493;28;20021;-70
2022/06/29 04:03:30;;;;;;;3.35;2.22;;;18.10;60.90;;;;;;5036521;28;20094;-70
2022/06/29 04:05:55;;;;;;;3.55;1.90;;;18.10;60.80;;;;;;5041792;28;20029;-70
2022/06/29 04:08:21;;;;;;;2.78;2.28;;;18.10;60.90;;;;;;5043200;28;20086;-70
2022/06/29 04:10:47;;;;;;;2.03;1.80;;;18.10;61.20;;;;;;5044076;28;20033;-69
2022/06/29 04:13:13;;;;;;;2.13;1.92;;;18.10;61.10;;;;;;5046449;28;20066;-69
2022/06/29 04:15:39;;;;;;;2.10;1.90;;;18.10;61.20;;;;;;5047776;28;20532;-68
2022/06/29 04:18:04;;;;;;;3.05;2.00;;;18.10;61.20;;;;;;5040560;28;20025;-70
2022/06/29 04:23:14;;;;;;;2.63;2.03;;;18.20;61.10;;;;;;5047440;28;20064;-71
2022/06/29 04:25:40;;;;;;;2.88;1.80;;;18.20;61.10;;;;;;5044424;28;20061;-70
2022/06/29 04:28:06;;;;;;;2.15;1.92;;;18.10;61.10;;;;;;5039555;28;20033;-72
2022/06/29 04:30:32;;;;;;;2.05;1.80;;;18.10;61.20;;;;;;5036398;28;20029;-70
2022/06/29 04:32:59;;;;;;;1.95;1.75;;;18.20;61.20;;;;;;5047312;28;20522;-68
2022/06/29 04:35:24;;;;;;;3.42;2.30;;;18.30;60.90;;;;;;5038881;28;20438;-68
2022/06/29 04:37:50;;;;;;;2.20;2.00;;;18.30;60.90;;;;;;5036985;28;20028;-69
2022/06/29 04:40:15;;;;;;;2.00;1.80;;;18.30;61.50;;;;;;5038551;28;20025;-69
2022/06/29 04:42:41;;;;;;;2.85;2.03;;;18.40;60.70;;;;;;5041209;28;20122;-70
2022/06/29 04:46:19;;;;;;;2.35;1.60;;;18.40;60.70;;;;;;5047552;28;20031;-70
2022/06/29 04:47:52;;;;;;;3.42;1.90;;;18.50;60.70;;;;;;5045642;28;20041;-69
2022/06/29 04:50:18;;;;;;;2.53;2.03;;;18.50;60.60;;;;;;5041838;28;20471;-70
2022/06/29 04:52:43;;;;;;;2.15;1.95;;;18.60;60.50;;;;;;5038017;28;20396;-69
2022/06/29 04:55:09;;;;;;;3.50;2.72;;;18.70;60.40;;;;;;5044270;28;20032;-69
2022/06/29 04:57:35;;;;;;;2.42;2.13;;;19.10;59.80;;;;;;5033653;28;20025;-68
2022/06/29 05:00:01;;;;;;;2.03;1.83;;;19.40;59.00;;;;;;5044522;28;20078;-69
2022/06/29 05:02:26;;;;;;;2.85;2.00;;;19.80;58.20;;;;;;5035878;28;20029;-69
2022/06/29 05:04:52;;;;;;;2.42;1.70;;;20.10;57.50;;;;;;5045296;28;20056;-69
2022/06/29 05:07:17;;;;;;;2.40;1.80;;;20.40;56.80;;;;;;5044418;28;20164;-70
2022/06/29 05:09:44;;;;;;;2.75;1.80;;;20.70;56.20;;;;;;5045745;28;20476;-69
2022/06/29 05:12:10;;;;;;;2.67;1.60;;;21.00;55.50;;;;;;5052899;28;20017;-68
2022/06/29 05:14:35;;;;;;;3.50;2.10;;;21.30;54.90;;;;;;5041079;28;20492;-69
2022/06/29 05:17:01;;;;;;;1.67;1.48;;;21.40;54.30;;;;;;5041795;28;20472;-68
2022/06/29 05:19:26;;;;;;;1.70;1.42;;;21.80;53.90;;;;;;5045976;28;20040;-69
2022/06/29 05:21:52;;;;;;;3.25;1.95;;;21.90;53.40;;;;;;5047668;28;20090;-69
2022/06/29 05:24:17;;;;;;;2.17;1.63;;;22.10;53.30;;;;;;5044745;28;20044;-69
2022/06/29 05:26:43;;;;;;;2.40;1.70;;;22.20;53.00;;;;;;5044422;28;20025;-70
2022/06/29 05:29:08;;;;;;;2.75;1.65;;;22.30;52.80;;;;;;5042051;28;20030;-69
2022/06/29 05:31:34;;;;;;;2.22;1.80;;;22.60;52.50;;;;;;5036339;28;20025;-67
2022/06/29 05:33:59;;;;;;;2.58;1.63;;;22.80;52.10;;;;;;5045342;28;20029;-69
2022/06/29 05:36:25;;;;;;;2.53;1.90;;;22.90;51.80;;;;;;5048915;28;20068;-69
2022/06/29 05:38:50;;;;;;;1.83;1.40;;;23.10;51.40;;;;;;5043527;28;20030;-69
2022/06/29 05:41:16;;;;;;;4.40;1.35;;;23.10;51.50;;;;;;5052773;28;20079;-69
2022/06/29 05:43:43;;;;;;;2.60;1.80;;;23.20;51.50;;;;;;5046028;28;20029;-69
2022/06/29 05:46:09;;;;;;;1.88;1.58;;;23.10;51.40;;;;;;5051190;28;20020;-70
2022/06/29 05:48:34;;;;;;;2.45;1.58;;;23.20;51.50;;;;;;5046880;28;20090;-68
2022/06/29 05:51:00;;;;;;;3.35;2.10;;;23.00;51.40;;;;;;5052693;28;20020;-69
2022/06/29 05:53:25;;;;;;;2.22;1.50;;;23.00;51.70;;;;;;5047440;28;20045;-70
2022/06/29 05:55:51;;;;;;;2.70;2.10;;;23.00;51.90;;;;;;5051806;28;20100;-69
2022/06/29 05:58:19;;;;;;;2.38;1.70;;;22.90;51.70;;;;;;5043514;28;20107;-67
2022/06/29 06:00:45;;;;;;;3.63;2.03;;;22.80;51.90;;;;;;5051992;28;20360;-70
2022/06/29 06:03:11;;;;;;;1.98;1.60;;;22.70;52.10;;;;;;5051351;28;20021;-68
2022/06/29 06:05:36;;;;;;;2.25;1.98;;;22.70;52.40;;;;;;5052558;28;20559;-69
2022/06/29 06:08:02;;;;;;;2.47;1.55;;;22.70;52.40;;;;;;5042693;28;20497;-69
2022/06/29 06:10:27;;;;;;;1.67;1.50;;;22.80;52.40;;;;;;5049289;28;20102;-70
2022/06/29 06:12:53;;;;;;;3.55;1.80;;;22.80;52.30;;;;;;5044815;28;20048;-66
2022/06/29 06:15:18;;;;;;;2.15;1.75;;;22.80;52.00;;;;;;5051400;28;20056;-67
2022/06/29 06:17:44;;;;;;;1.95;1.70;;;22.80;52.10;;;;;;5049922;28;20028;-69
2022/06/29 06:20:10;;;;;;;2.67;1.85;;;22.90;52.10;;;;;;5050526;28;20036;-67
2022/06/29 06:22:36;;;;;;;2.85;1.90;;;22.80;51.80;;;;;;5045566;28;20029;-67
2022/06/29 06:25:01;;;;;;;4.35;2.28;;;22.70;52.20;;;;;;5048344;28;20511;-69
2022/06/29 06:27:27;;;;;;;3.28;2.10;;;22.70;52.10;;;;;;5039212;28;20105;-69
2022/06/29 06:29:52;;;;;;;2.10;1.90;;;22.70;52.10;;;;;;5049377;28;20031;-69
2022/06/29 06:32:23;;;;;;;2.60;1.67;;;22.80;52.10;;;;;;5045877;28;20025;-67
2022/06/29 06:34:48;;;;;;;2.00;1.80;;;22.90;52.10;;;;;;5050153;28;20105;-67
2022/06/29 06:37:14;;;;;;;2.10;1.50;;;23.00;52.00;;;;;;5047430;28;20583;-67
2022/06/29 06:41:21;;;;;;;3.58;2.40;;;23.20;51.80;;;;;;5044590;28;20070;-68
2022/06/29 06:42:25;;;;;;;2.63;2.10;;;23.30;51.30;;;;;;5046234;28;20068;-68
2022/06/29 06:44:50;;;;;;;3.38;2.00;;;23.40;51.10;;;;;;5042762;28;20413;-67
2022/06/29 06:47:16;;;;;;;2.85;2.13;;;23.50;50.70;;;;;;5038934;28;20766;-68
2022/06/29 06:49:42;;;;;;;2.92;1.60;;;23.60;50.60;;;;;;5034603;28;20083;-67
2022/06/29 06:52:07;;;;;;;4.13;2.10;;;23.80;50.70;;;;;;5035239;28;20092;-68
2022/06/29 06:54:33;;;;;;;3.58;1.90;;;23.90;50.50;;;;;;5033860;28;20526;-68
2022/06/29 06:56:59;;;;;;;3.58;1.63;;;24.00;50.30;;;;;;5036043;28;20111;-68
2022/06/29 06:59:24;;;;;;;3.05;2.00;;;24.30;50.00;;;;;;5040841;28;20078;-68
2022/06/29 07:01:50;;;;;;;3.63;2.20;;;24.50;49.50;;;;;;5048876;28;20025;-68
2022/06/29 07:04:16;;;;;;;4.57;2.40;;;24.40;49.30;;;;;;5043391;28;20033;-67
2022/06/29 07:06:41;;;;;;;3.03;2.20;;;24.30;49.10;;;;;;5057295;28;20128;-69
2022/06/29 07:09:07;;;;;;;3.10;2.40;;;24.00;49.20;;;;;;5040854;28;20039;-68
2022/06/29 07:11:32;;;;;;;3.13;2.08;;;23.70;50.10;;;;;;5055508;28;20093;-68
2022/06/29 07:13:58;;;;;;;2.80;2.17;;;23.60;50.60;;;;;;5043095;28;20430;-68
2022/06/29 07:16:23;;;;;;;3.78;2.10;;;23.50;50.80;;;;;;5056804;28;20020;-69
2022/06/29 07:18:49;;;;;;;3.50;2.30;;;23.60;51.10;;;;;;5043209;28;20034;-68
2022/06/29 07:21:15;;;;;;;3.28;2.30;;;23.90;50.90;;;;;;5058536;28;20017;-68
2022/06/29 07:23:41;;;;;;;3.50;1.95;;;23.90;51.10;;;;;;5049328;28;20021;-68
2022/06/29 07:26:06;;;;;;;3.28;2.83;;;24.00;51.00;;;;;;5053701;28;20078;-69
2022/06/29 07:28:32;;;;;;;4.15;2.20;;;24.20;51.00;;;;;;5053611;28;20025;-68
2022/06/29 07:30:57;;;;;;;4.35;2.60;;;24.20;50.90;;;;;;5043750;28;20020;-68
2022/06/29 07:33:23;;;;;;;4.57;2.58;;;24.30;50.70;;;;;;5039543;28;20405;-68
2022/06/29 07:35:48;;;;;;;2.63;2.10;;;24.40;50.30;;;;;;5051052;28;20483;-68
2022/06/29 07:38:14;;;;;;;2.60;1.65;;;24.60;50.40;;;;;;5059372;28;20025;-68
2022/06/29 07:40:39;;;;;;;2.67;1.70;;;24.80;50.00;;;;;;5055529;28;20028;-68
2022/06/29 07:43:05;;;;;;;2.55;1.95;;;25.00;49.60;;;;;;5060555;28;20025;-68
2022/06/29 07:45:31;;;;;;;2.70;2.00;;;25.10;49.00;;;;;;5046086;28;20037;-68
2022/06/29 07:47:56;;;;;;;4.60;2.25;;;25.10;48.80;;;;;;5062883;28;20542;-68
2022/06/29 07:50:22;;;;;;;2.70;2.00;;;25.20;48.40;;;;;;5046737;28;20025;-68
2022/06/29 07:52:47;;;;;;;2.92;1.70;;;25.30;48.30;;;;;;5049542;28;20025;-68
2022/06/29 07:55:13;;;;;;;3.13;1.90;;;25.40;47.90;;;;;;5047922;28;20053;-69
2022/06/29 07:57:39;;;;;;;4.03;1.95;;;25.50;47.80;;;;;;5058443;28;20032;-69
2022/06/29 08:00:05;;;;;;;2.72;1.70;;;25.60;47.90;;;;;;5046945;28;20423;-69
2022/06/29 08:02:30;;;;;;;3.10;1.90;;;25.70;47.30;;;;;;5055405;28;20032;-66
2022/06/29 08:04:58;;;;;;;2.40;1.70;;;25.70;47.00;;;;;;5048335;28;20048;-68
2022/06/29 08:07:23;;;;;;;2.95;2.03;;;25.80;47.30;;;;;;5057863;28;20016;-68
2022/06/29 08:09:49;;;;;;;3.33;2.00;;;25.80;47.00;;;;;;5049668;28;20030;-67
2022/06/29 08:12:16;;;;;;;2.15;1.75;;;25.90;46.70;;;;;;5048893;28;20021;-67
2022/06/29 08:14:41;;;;;;;3.20;1.80;;;25.90;46.60;;;;;;5042014;28;20033;-67
2022/06/29 08:17:07;;;;;;;3.42;2.05;;;26.00;46.20;;;;;;5057782;28;20357;-68
2022/06/29 08:19:32;;;;;;;2.55;1.85;;;26.10;46.20;;;;;;5051278;28;20030;-69
2022/06/29 08:21:58;;;;;;;4.43;2.00;;;26.20;46.20;;;;;;5051873;28;20024;-68
2022/06/29 08:24:23;;;;;;;3.03;1.75;;;26.20;46.10;;;;;;5049028;28;20032;-68
2022/06/29 08:26:49;;;;;;;2.33;1.60;;;26.50;46.30;;;;;;5056607;28;20043;-68
2022/06/29 08:29:14;;;;;;;2.92;1.63;;;26.70;45.90;;;;;;5056314;28;20022;-68
2022/06/29 08:31:40;;;;;;;3.88;1.65;;;26.80;45.60;;;;;;5047123;28;20043;-69
2022/06/29 08:34:09;;;;;;;3.17;1.90;;;26.90;45.40;;;;;;5055256;28;20040;-70
2022/06/29 08:36:35;;;;;;;3.42;2.10;;;27.00;45.40;;;;;;5054295;28;20426;-69
2022/06/29 08:39:01;;;;;;;2.33;1.60;;;27.20;44.60;;;;;;5041802;28;20430;-68
2022/06/29 08:41:29;;;;;;;4.10;1.10;;;27.40;44.70;;;;;;5053396;28;20116;-68
2022/06/29 08:43:57;;;;;;;2.90;1.95;;;27.50;44.60;;;;;;5055473;28;20112;-68
2022/06/29 08:46:23;;;;;;;2.78;1.83;;;27.60;43.30;;;;;;5059929;28;20425;-68
2022/06/29 08:48:48;;;;;;;2.05;1.50;;;27.60;42.90;;;;;;5061958;28;20051;-70
2022/06/29 08:51:18;;;;;;;3.03;1.70;;;27.50;43.40;;;;;;5058382;28;20025;-69
2022/06/29 08:53:45;;;;;;;2.45;1.73;;;27.40;43.40;;;;;;5054385;28;20075;-69
2022/06/29 08:56:12;;;;;;;3.63;1.75;;;27.40;43.90;;;;;;5053712;28;20364;-69
2022/06/29 08:58:40;;;;;;;3.10;2.00;;;27.20;43.90;;;;;;5059689;28;20054;-68
2022/06/29 09:01:05;;;;;;;3.47;1.35;;;27.20;44.00;;;;;;5046173;28;20108;-69
2022/06/29 09:03:31;;;;;;;1.90;1.27;;;27.30;44.70;;;;;;5044198;28;20099;-69
2022/06/29 09:05:57;;;;;;;5.20;2.10;;;27.30;44.60;;;;;;5043120;28;20040;-70
2022/06/29 09:08:27;;;;;;;4.35;2.00;;;27.30;44.20;;;;;;5048450;28;20040;-68
2022/06/29 09:10:53;;;;;;;1.90;1.37;;;27.20;44.60;;;;;;5045301;28;20027;-69
2022/06/29 09:13:23;;;;;;;2.30;1.67;;;27.30;44.90;;;;;;5044322;28;20088;-68
2022/06/29 09:15:59;;;;;;;2.97;1.50;;;27.20;44.70;;;;;;5053057;28;20033;-67
2022/06/29 09:18:27;;;;;;;3.60;1.58;;;27.40;45.10;;;;;;5050816;28;20029;-69
2022/06/29 09:20:55;;;;;;;1.83;1.30;;;27.40;43.70;;;;;;5051980;28;20091;-68
2022/06/29 09:23:21;;;;;;;2.05;1.10;;;27.40;43.40;;;;;;5059099;28;20029;-69
2022/06/29 09:25:46;;;;;;;2.75;1.23;;;27.60;43.70;;;;;;5060165;28;20035;-68
2022/06/29 09:28:31;;;;;;;2.95;1.40;;;27.70;41.30;;;;;;5044823;28;20037;-68
2022/06/29 09:30:59;;;;;;;2.53;1.60;;;27.60;40.70;;;;;;5050574;28;20438;-69
2022/06/29 09:33:26;;;;;;;2.92;1.40;;;27.60;40.10;;;;;;5047800;28;20018;-69
2022/06/29 09:36:04;;;;;;;2.72;1.30;;;27.70;40.10;;;;;;5047802;28;20021;-67
2022/06/29 09:38:30;;;;;;;2.00;1.25;;;27.70;40.90;;;;;;5046249;28;20037;-68
2022/06/29 09:41:06;;;;;;;2.05;1.20;;;27.90;40.30;;;;;;5045816;28;20075;-69
2022/06/29 09:43:34;;;;;;;2.25;1.10;;;28.20;40.20;;;;;;5044208;28;20488;-68
2022/06/29 09:46:03;;;;;;;2.47;1.33;;;28.50;40.20;;;;;;5047300;28;20037;-68
2022/06/29 09:48:30;;;;;;;1.55;1.20;;;28.70;39.70;;;;;;5042313;28;20053;-68
2022/06/29 09:50:57;;;;;;;1.15;1.05;;;28.70;40.10;;;;;;5048484;28;20017;-68
2022/06/29 09:53:37;;;;;;;1.60;1.10;;;28.70;38.60;;;;;;5045478;28;20445;-68
2022/06/29 09:56:06;;;;;;;1.43;1.00;;;28.70;38.40;;;;;;5044204;28;20028;-69
2022/06/29 09:58:44;;;;;;;1.88;1.00;;;28.80;38.00;;;;;;5043522;28;20432;-69
2022/06/29 10:03:56;;;;;;;1.23;0.90;;;28.80;38.10;;;;;;5044867;28;20135;-68
2022/06/29 10:06:23;;;;;;;2.47;1.10;;;29.00;39.00;;;;;;5044579;28;20025;-67
2022/06/29 10:08:49;;;;;;;1.63;1.00;;;29.20;38.60;;;;;;5045213;28;20078;-68
2022/06/29 10:14:38;;;;;;;2.15;1.00;;;29.10;37.50;;;;;;5060279;28;20029;-67
2022/06/29 10:17:06;;;;;;;1.42;1.00;;;29.10;37.60;;;;;;5043586;28;20029;-67
2022/06/29 10:19:46;;;;;;;1.00;0.80;;;29.20;37.40;;;;;;5067552;28;20036;-68
2022/06/29 10:22:12;;;;;;;1.52;0.90;;;29.20;37.00;;;;;;5045928;28;20023;-68
2022/06/29 10:24:37;;;;;;;1.35;0.70;;;29.10;37.00;;;;;;5057960;28;20457;-68
2022/06/29 10:27:07;;;;;;;1.23;0.90;;;29.10;37.30;;;;;;5050611;28;20029;-68
2022/06/29 10:29:34;;;;;;;0.90;0.70;;;29.00;37.10;;;;;;5067937;28;20111;-68
2022/06/29 10:32:05;;;;;;;2.33;1.00;;;29.00;37.40;;;;;;5043029;28;20025;-68
2022/06/29 10:34:31;;;;;;;2.00;0.88;;;29.00;37.30;;;;;;5055924;28;20138;-69
2022/06/29 10:37:02;;;;;;;0.90;0.70;;;29.00;37.30;;;;;;5058123;28;20032;-68
2022/06/29 10:39:49;;;;;;;1.35;0.90;;;29.00;37.50;;;;;;5049852;28;20506;-68
2022/06/29 10:45:24;;;;;;;3.47;1.00;;;29.00;37.20;;;;;;5046678;28;20138;-69
2022/06/29 10:47:55;;;;;;;2.05;1.67;;;29.10;37.80;;;;;;5045191;28;20032;-68
2022/06/29 10:50:23;;;;;;;1.83;0.90;;;29.30;36.90;;;;;;5046542;28;20037;-68
2022/06/29 10:52:50;;;;;;;1.20;0.90;;;29.20;35.70;;;;;;5043931;28;20214;-67
2022/06/29 10:55:17;;;;;;;1.08;0.75;;;29.20;35.10;;;;;;5048756;28;20021;-68
2022/06/29 10:57:44;;;;;;;1.00;0.90;;;29.20;34.90;;;;;;5044672;28;20029;-69
2022/06/29 11:00:17;;;;;;;1.92;0.90;;;29.00;35.20;;;;;;5061130;28;20721;-69
2022/06/29 11:02:44;;;;;;;2.92;0.98;;;29.20;35.90;;;;;;5057884;28;20032;-68
2022/06/29 11:05:10;;;;;;;1.35;0.93;;;29.10;36.00;;;;;;5057149;28;20029;-68
2022/06/29 11:13:11;;;;;;;1.65;0.80;;;29.40;35.90;;;;;;5043984;28;20040;-67
2022/06/29 11:15:47;;;;;;;1.17;0.88;;;29.40;35.50;;;;;;5068147;28;20035;-68
2022/06/29 11:18:13;;;;;;;1.30;0.90;;;29.50;34.70;;;;;;5051593;28;20418;-67
2022/06/29 11:20:40;;;;;;;1.15;1.00;;;29.60;34.40;;;;;;5045528;28;20022;-67
2022/06/29 11:23:10;;;;;;;1.95;0.70;;;29.40;33.70;;;;;;5046787;28;20022;-67
2022/06/29 11:25:37;;;;;;;3.45;0.88;;;29.30;33.60;;;;;;5067100;28;20031;-67
2022/06/29 11:28:03;;;;;;;1.95;0.77;;;29.10;33.70;;;;;;5047537;28;20054;-67
2022/06/29 11:30:29;;;;;;;1.88;0.88;;;29.20;34.40;;;;;;5061410;28;20390;-68
2022/06/29 11:32:55;;;;;;;1.50;1.00;;;29.30;33.90;;;;;;5051298;28;20070;-67
2022/06/29 11:35:22;;;;;;;1.10;0.63;;;29.40;34.30;;;;;;5046867;28;20430;-67
2022/06/29 11:37:52;;;;;;;1.48;0.95;;;29.40;34.50;;;;;;5037125;28;20707;-68
2022/06/29 11:40:36;;;;;;;0.63;0.60;;;29.60;34.50;;;;;;5040736;28;20025;-67
2022/06/29 11:43:07;;;;;;;1.00;0.70;;;29.80;34.40;;;;;;5040046;28;20043;-67
2022/06/29 11:45:54;;;;;;;2.10;1.00;;;29.90;34.30;;;;;;5041055;28;20408;-68
2022/06/29 11:48:21;;;;;;;1.85;0.98;;;29.80;34.40;;;;;;5039640;28;20025;-68
2022/06/29 11:50:53;;;;;;;1.73;0.98;;;29.80;34.80;;;;;;5041579;28;20048;-68
2022/06/29 11:53:44;;;;;;;1.50;1.03;;;29.80;35.00;;;;;;5045813;28;20092;-69
2022/06/29 11:56:11;;;;;;;1.57;0.80;;;29.90;35.10;;;;;;5047232;28;20818;-68
2022/06/29 11:58:39;;;;;;;1.38;1.00;;;30.10;35.10;;;;;;5045810;28;20109;-68
2022/06/29 12:01:13;;;;;;;1.00;0.80;;;30.30;34.80;;;;;;5042180;28;20167;-68
2022/06/29 12:03:46;;;;;;;2.30;1.05;;;30.50;35.00;;;;;;5039884;28;20048;-69
2022/06/29 12:06:14;;;;;;;1.90;1.20;;;30.60;34.00;;;;;;5040516;28;20094;-68
2022/06/29 12:08:40;;;;;;;1.73;0.90;;;30.50;33.40;;;;;;5040109;28;20099;-69
2022/06/29 12:11:06;;;;;;;1.77;0.80;;;30.50;33.70;;;;;;5044252;28;20472;-68
2022/06/29 12:13:31;;;;;;;1.58;0.80;;;30.60;33.40;;;;;;5041348;28;20484;-68
2022/06/29 12:15:57;;;;;;;1.40;1.00;;;30.30;33.30;;;;;;5042731;28;20109;-68
2022/06/29 12:18:23;;;;;;;1.02;0.75;;;30.10;33.40;;;;;;5039856;28;20036;-68
2022/06/29 12:20:49;;;;;;;1.13;0.80;;;30.20;34.00;;;;;;5042583;28;20025;-69
2022/06/29 12:23:14;;;;;;;0.93;0.80;;;30.30;34.40;;;;;;5036139;28;20032;-69
2022/06/29 12:25:40;;;;;;;3.28;1.00;;;30.30;34.30;;;;;;5042294;28;20422;-69
2022/06/29 12:28:06;;;;;;;1.92;1.00;;;30.30;33.70;;;;;;5036610;28;20507;-69
2022/06/29 12:30:32;;;;;;;1.23;0.90;;;30.40;33.80;;;;;;5036184;28;20025;-68
2022/06/29 12:32:57;;;;;;;2.55;1.10;;;30.10;33.80;;;;;;5036466;28;20033;-69
2022/06/29 12:35:23;;;;;;;2.10;1.00;;;30.20;34.00;;;;;;5040071;28;20065;-69
2022/06/29 12:37:48;;;;;;;1.40;1.15;;;30.40;34.40;;;;;;5042168;28;20040;-69
2022/06/29 12:40:14;;;;;;;2.03;1.10;;;30.40;34.70;;;;;;5047117;28;20103;-69
2022/06/29 12:42:40;;;;;;;1.33;0.90;;;30.70;34.40;;;;;;5035219;28;20782;-69
2022/06/29 12:45:07;;;;;;;1.20;0.90;;;31.00;34.30;;;;;;5043330;28;20059;-69
2022/06/29 12:47:33;;;;;;;2.65;1.00;;;31.20;34.30;;;;;;5039297;28;20036;-68
2022/06/29 12:50:01;;;;;;;1.27;0.90;;;31.10;33.80;;;;;;5042246;28;20394;-67
2022/06/29 12:52:26;;;;;;;2.05;1.45;;;30.80;34.30;;;;;;5040103;28;20018;-68
2022/06/29 12:54:52;;;;;;;1.20;1.00;;;30.60;34.50;;;;;;5035840;28;20040;-67
2022/06/29 12:57:18;;;;;;;1.98;1.10;;;30.50;34.80;;;;;;5041133;28;20070;-67
2022/06/29 12:59:43;;;;;;;1.17;1.05;;;30.70;34.80;;;;;;5039506;28;20086;-67
2022/06/29 13:02:09;;;;;;;4.07;1.35;;;30.70;34.90;;;;;;5042054;28;20483;-67
2022/06/29 13:04:35;;;;;;;2.20;1.27;;;30.60;35.00;;;;;;5041874;28;20033;-68
2022/06/29 13:07:02;;;;;;;1.35;0.90;;;30.20;35.30;;;;;;5045687;28;20026;-69
2022/06/29 13:09:28;;;;;;;1.55;0.90;;;30.00;35.60;;;;;;5042550;28;20036;-69